sensor_id;sensor_type;location;lat;lon;timestamp;P1;durP1;ratioP1;P2;durP2;ratioP2
73872;SDS011;62206;47.568;9.364;2024-03-06T00:00:03;9.20;;;8.00;;
73872;SDS011;62206;47.568;9.364;2024-03-06T00:02:33;9.77;;;8.77;;
73872;SDS011;62206;47.568;9.364;2024-03-06T00:05:00;9.15;;;8.32;;
73872;SDS011;62206;47.568;9.364;2024-03-06T00:07:27;8.43;;;7.33;;
73872;SDS011;62206;47.568;9.364;2024-03-06T00:09:56;8.50;;;7.60;;
73872;SDS011;62206;47.568;9.364;2024-03-06T00:12:22;8.43;;;7.63;;
73872;SDS011;62206;47.568;9.364;2024-03-06T00:14:49;8.15;;;7.32;;
73872;SDS011;62206;47.568;9.364;2024-03-06T00:17:17;8.40;;;7.60;;
73872;SDS011;62206;47.568;9.364;2024-03-06T00:19:44;7.90;;;7.00;;
73872;SDS011;62206;47.568;9.364;2024-03-06T00:22:10;8.27;;;7.47;;
73872;SDS011;62206;47.568;9.364;2024-03-06T00:24:38;7.82;;;7.03;;
73872;SDS011;62206;47.568;9.364;2024-03-06T00:27:06;8.13;;;7.32;;
73872;SDS011;62206;47.568;9.364;2024-03-06T00:29:33;8.70;;;7.55;;
73872;SDS011;62206;47.568;9.364;2024-03-06T00:32:02;9.37;;;7.43;;
73872;SDS011;62206;47.568;9.364;2024-03-06T00:34:29;8.68;;;7.35;;
73872;SDS011;62206;47.568;9.364;2024-03-06T00:36:56;8.95;;;8.05;;
73872;SDS011;62206;47.568;9.364;2024-03-06T00:39:24;7.95;;;7.15;;
73872;SDS011;62206;47.568;9.364;2024-03-06T00:41:51;9.85;;;8.20;;
73872;SDS011;62206;47.568;9.364;2024-03-06T00:44:19;7.93;;;7.13;;
73872;SDS011;62206;47.568;9.364;2024-03-06T00:46:47;8.48;;;7.75;;
73872;SDS011;62206;47.568;9.364;2024-03-06T00:49:14;8.05;;;7.25;;
73872;SDS011;62206;47.568;9.364;2024-03-06T00:51:41;7.90;;;7.10;;
73872;SDS011;62206;47.568;9.364;2024-03-06T00:54:08;7.82;;;7.03;;
73872;SDS011;62206;47.568;9.364;2024-03-06T00:56:36;8.00;;;7.20;;
73872;SDS011;62206;47.568;9.364;2024-03-06T00:59:04;7.57;;;6.88;;
73872;SDS011;62206;47.568;9.364;2024-03-06T01:01:32;7.90;;;7.10;;
73872;SDS011;62206;47.568;9.364;2024-03-06T01:03:59;7.53;;;6.80;;
73872;SDS011;62206;47.568;9.364;2024-03-06T01:06:26;7.55;;;6.85;;
73872;SDS011;62206;47.568;9.364;2024-03-06T01:08:53;7.70;;;6.97;;
73872;SDS011;62206;47.568;9.364;2024-03-06T01:11:22;7.88;;;6.95;;
73872;SDS011;62206;47.568;9.364;2024-03-06T01:13:48;7.50;;;6.80;;
73872;SDS011;62206;47.568;9.364;2024-03-06T01:16:16;7.20;;;6.22;;
73872;SDS011;62206;47.568;9.364;2024-03-06T01:18:44;8.32;;;7.53;;
73872;SDS011;62206;47.568;9.364;2024-03-06T01:21:11;8.10;;;7.30;;
73872;SDS011;62206;47.568;9.364;2024-03-06T01:23:38;8.20;;;7.25;;
73872;SDS011;62206;47.568;9.364;2024-03-06T01:26:05;7.93;;;7.20;;
73872;SDS011;62206;47.568;9.364;2024-03-06T01:28:32;8.00;;;7.30;;
73872;SDS011;62206;47.568;9.364;2024-03-06T01:30:59;8.30;;;7.50;;
73872;SDS011;62206;47.568;9.364;2024-03-06T01:33:26;7.00;;;6.30;;
73872;SDS011;62206;47.568;9.364;2024-03-06T01:35:54;8.00;;;7.30;;
73872;SDS011;62206;47.568;9.364;2024-03-06T01:38:22;7.85;;;7.05;;
73872;SDS011;62206;47.568;9.364;2024-03-06T01:40:49;8.38;;;7.57;;
73872;SDS011;62206;47.568;9.364;2024-03-06T01:43:19;8.50;;;7.70;;
73872;SDS011;62206;47.568;9.364;2024-03-06T01:45:47;8.20;;;7.43;;
73872;SDS011;62206;47.568;9.364;2024-03-06T01:48:15;7.88;;;7.07;;
73872;SDS011;62206;47.568;9.364;2024-03-06T01:50:42;8.85;;;7.97;;
73872;SDS011;62206;47.568;9.364;2024-03-06T01:53:11;7.97;;;7.28;;
73872;SDS011;62206;47.568;9.364;2024-03-06T01:55:38;8.45;;;7.65;;
73872;SDS011;62206;47.568;9.364;2024-03-06T01:58:05;8.33;;;7.53;;
73872;SDS011;62206;47.568;9.364;2024-03-06T02:00:33;8.32;;;7.53;;
73872;SDS011;62206;47.568;9.364;2024-03-06T02:03:00;8.70;;;7.90;;
73872;SDS011;62206;47.568;9.364;2024-03-06T02:05:28;8.10;;;7.25;;
73872;SDS011;62206;47.568;9.364;2024-03-06T02:07:57;8.60;;;7.80;;
73872;SDS011;62206;47.568;9.364;2024-03-06T02:10:26;7.70;;;6.90;;
73872;SDS011;62206;47.568;9.364;2024-03-06T02:12:53;7.85;;;7.05;;
73872;SDS011;62206;47.568;9.364;2024-03-06T02:15:21;7.68;;;6.97;;
73872;SDS011;62206;47.568;9.364;2024-03-06T02:17:48;7.88;;;6.38;;
73872;SDS011;62206;47.568;9.364;2024-03-06T02:20:16;8.10;;;7.30;;
73872;SDS011;62206;47.568;9.364;2024-03-06T02:22:45;6.90;;;6.27;;
73872;SDS011;62206;47.568;9.364;2024-03-06T02:25:11;7.90;;;7.10;;
73872;SDS011;62206;47.568;9.364;2024-03-06T02:27:40;7.75;;;6.95;;
73872;SDS011;62206;47.568;9.364;2024-03-06T02:30:07;7.00;;;6.28;;
73872;SDS011;62206;47.568;9.364;2024-03-06T02:32:35;7.95;;;7.10;;
73872;SDS011;62206;47.568;9.364;2024-03-06T02:35:01;7.87;;;6.27;;
73872;SDS011;62206;47.568;9.364;2024-03-06T02:37:34;6.15;;;5.55;;
73872;SDS011;62206;47.568;9.364;2024-03-06T02:40:02;7.00;;;6.40;;
73872;SDS011;62206;47.568;9.364;2024-03-06T02:42:32;8.15;;;6.88;;
73872;SDS011;62206;47.568;9.364;2024-03-06T02:44:59;7.15;;;6.45;;
73872;SDS011;62206;47.568;9.364;2024-03-06T02:47:26;6.83;;;6.17;;
73872;SDS011;62206;47.568;9.364;2024-03-06T02:49:53;7.70;;;6.90;;
73872;SDS011;62206;47.568;9.364;2024-03-06T02:52:20;7.10;;;6.40;;
73872;SDS011;62206;47.568;9.364;2024-03-06T02:54:47;7.95;;;7.20;;
73872;SDS011;62206;47.568;9.364;2024-03-06T02:57:15;8.02;;;7.22;;
73872;SDS011;62206;47.568;9.364;2024-03-06T02:59:43;7.63;;;6.77;;
73872;SDS011;62206;47.568;9.364;2024-03-06T03:02:10;7.82;;;7.05;;
73872;SDS011;62206;47.568;9.364;2024-03-06T03:04:36;7.63;;;6.93;;
73872;SDS011;62206;47.568;9.364;2024-03-06T03:07:04;5.90;;;5.40;;
73872;SDS011;62206;47.568;9.364;2024-03-06T03:09:32;7.03;;;6.10;;
73872;SDS011;62206;47.568;9.364;2024-03-06T03:12:01;6.47;;;5.87;;
73872;SDS011;62206;47.568;9.364;2024-03-06T03:14:29;6.38;;;5.78;;
73872;SDS011;62206;47.568;9.364;2024-03-06T03:16:56;7.18;;;6.43;;
73872;SDS011;62206;47.568;9.364;2024-03-06T03:19:23;6.82;;;6.22;;
73872;SDS011;62206;47.568;9.364;2024-03-06T03:21:51;8.40;;;6.57;;
73872;SDS011;62206;47.568;9.364;2024-03-06T03:24:17;6.60;;;5.63;;
73872;SDS011;62206;47.568;9.364;2024-03-06T03:26:45;6.85;;;6.15;;
73872;SDS011;62206;47.568;9.364;2024-03-06T03:29:13;6.53;;;5.90;;
73872;SDS011;62206;47.568;9.364;2024-03-06T03:31:41;6.38;;;5.78;;
73872;SDS011;62206;47.568;9.364;2024-03-06T03:34:08;6.30;;;5.70;;
73872;SDS011;62206;47.568;9.364;2024-03-06T03:36:39;6.23;;;5.63;;
73872;SDS011;62206;47.568;9.364;2024-03-06T03:39:07;6.30;;;5.70;;
73872;SDS011;62206;47.568;9.364;2024-03-06T03:41:42;6.40;;;5.80;;
73872;SDS011;62206;47.568;9.364;2024-03-06T03:44:10;5.90;;;5.30;;
73872;SDS011;62206;47.568;9.364;2024-03-06T03:46:37;5.47;;;4.97;;
73872;SDS011;62206;47.568;9.364;2024-03-06T03:49:06;5.83;;;5.23;;
73872;SDS011;62206;47.568;9.364;2024-03-06T03:51:34;6.55;;;5.95;;
73872;SDS011;62206;47.568;9.364;2024-03-06T03:54:01;6.38;;;5.78;;
73872;SDS011;62206;47.568;9.364;2024-03-06T03:56:28;6.25;;;5.32;;
73872;SDS011;62206;47.568;9.364;2024-03-06T03:58:55;6.28;;;5.68;;
73872;SDS011;62206;47.568;9.364;2024-03-06T04:01:22;6.10;;;5.50;;
73872;SDS011;62206;47.568;9.364;2024-03-06T04:03:50;6.60;;;5.88;;
73872;SDS011;62206;47.568;9.364;2024-03-06T04:06:18;7.18;;;6.47;;
73872;SDS011;62206;47.568;9.364;2024-03-06T04:08:45;6.40;;;5.80;;
73872;SDS011;62206;47.568;9.364;2024-03-06T04:11:12;6.63;;;6.03;;
73872;SDS011;62206;47.568;9.364;2024-03-06T04:13:39;6.70;;;6.10;;
73872;SDS011;62206;47.568;9.364;2024-03-06T04:16:06;6.90;;;6.30;;
73872;SDS011;62206;47.568;9.364;2024-03-06T04:18:33;6.53;;;5.93;;
73872;SDS011;62206;47.568;9.364;2024-03-06T04:21:02;6.38;;;5.78;;
73872;SDS011;62206;47.568;9.364;2024-03-06T04:23:31;7.05;;;6.38;;
73872;SDS011;62206;47.568;9.364;2024-03-06T04:25:59;6.23;;;5.63;;
73872;SDS011;62206;47.568;9.364;2024-03-06T04:28:26;8.95;;;8.15;;
73872;SDS011;62206;47.568;9.364;2024-03-06T04:30:53;8.95;;;8.15;;
73872;SDS011;62206;47.568;9.364;2024-03-06T04:33:20;7.40;;;6.70;;
73872;SDS011;62206;47.568;9.364;2024-03-06T04:35:47;7.63;;;6.88;;
73872;SDS011;62206;47.568;9.364;2024-03-06T04:38:14;7.43;;;6.73;;
73872;SDS011;62206;47.568;9.364;2024-03-06T04:40:43;6.78;;;6.18;;
73872;SDS011;62206;47.568;9.364;2024-03-06T04:43:10;7.22;;;6.63;;
73872;SDS011;62206;47.568;9.364;2024-03-06T04:45:37;6.70;;;6.00;;
73872;SDS011;62206;47.568;9.364;2024-03-06T04:48:05;7.15;;;6.45;;
73872;SDS011;62206;47.568;9.364;2024-03-06T04:50:32;7.40;;;6.70;;
73872;SDS011;62206;47.568;9.364;2024-03-06T04:52:59;7.43;;;6.72;;
73872;SDS011;62206;47.568;9.364;2024-03-06T04:55:26;8.02;;;7.32;;
73872;SDS011;62206;47.568;9.364;2024-03-06T04:57:54;7.13;;;6.43;;
73872;SDS011;62206;47.568;9.364;2024-03-06T05:00:21;6.25;;;5.65;;
73872;SDS011;62206;47.568;9.364;2024-03-06T05:02:49;5.67;;;5.17;;
73872;SDS011;62206;47.568;9.364;2024-03-06T05:05:16;6.65;;;6.05;;
73872;SDS011;62206;47.568;9.364;2024-03-06T05:07:42;6.47;;;5.97;;
73872;SDS011;62206;47.568;9.364;2024-03-06T05:10:10;6.80;;;6.10;;
73872;SDS011;62206;47.568;9.364;2024-03-06T05:12:37;7.30;;;6.70;;
73872;SDS011;62206;47.568;9.364;2024-03-06T05:15:05;6.17;;;5.57;;
73872;SDS011;62206;47.568;9.364;2024-03-06T05:17:34;6.75;;;6.15;;
73872;SDS011;62206;47.568;9.364;2024-03-06T05:20:00;6.72;;;6.03;;
73872;SDS011;62206;47.568;9.364;2024-03-06T05:22:29;6.65;;;6.05;;
73872;SDS011;62206;47.568;9.364;2024-03-06T05:24:56;6.75;;;6.15;;
73872;SDS011;62206;47.568;9.364;2024-03-06T05:27:23;6.50;;;5.90;;
73872;SDS011;62206;47.568;9.364;2024-03-06T05:29:50;7.40;;;6.80;;
73872;SDS011;62206;47.568;9.364;2024-03-06T05:32:19;7.35;;;6.18;;
73872;SDS011;62206;47.568;9.364;2024-03-06T05:34:46;7.07;;;6.47;;
73872;SDS011;62206;47.568;9.364;2024-03-06T05:37:12;7.78;;;7.07;;
73872;SDS011;62206;47.568;9.364;2024-03-06T05:39:40;9.50;;;8.50;;
73872;SDS011;62206;47.568;9.364;2024-03-06T05:42:07;11.05;;;9.75;;
73872;SDS011;62206;47.568;9.364;2024-03-06T05:44:34;12.90;;;11.60;;
73872;SDS011;62206;47.568;9.364;2024-03-06T05:47:02;9.52;;;8.63;;
73872;SDS011;62206;47.568;9.364;2024-03-06T05:49:30;8.35;;;7.55;;
73872;SDS011;62206;47.568;9.364;2024-03-06T05:51:57;7.20;;;6.50;;
73872;SDS011;62206;47.568;9.364;2024-03-06T05:54:25;6.90;;;6.30;;
73872;SDS011;62206;47.568;9.364;2024-03-06T05:56:52;7.68;;;6.97;;
73872;SDS011;62206;47.568;9.364;2024-03-06T05:59:20;8.55;;;7.85;;
73872;SDS011;62206;47.568;9.364;2024-03-06T06:01:47;7.28;;;6.60;;
73872;SDS011;62206;47.568;9.364;2024-03-06T06:04:14;6.60;;;6.00;;
73872;SDS011;62206;47.568;9.364;2024-03-06T06:06:42;7.50;;;6.85;;
73872;SDS011;62206;47.568;9.364;2024-03-06T06:09:09;7.63;;;6.93;;
73872;SDS011;62206;47.568;9.364;2024-03-06T06:11:41;6.25;;;5.65;;
73872;SDS011;62206;47.568;9.364;2024-03-06T06:14:09;6.60;;;6.00;;
73872;SDS011;62206;47.568;9.364;2024-03-06T06:16:36;6.63;;;5.77;;
73872;SDS011;62206;47.568;9.364;2024-03-06T06:19:03;6.45;;;5.85;;
73872;SDS011;62206;47.568;9.364;2024-03-06T06:21:31;7.30;;;6.70;;
73872;SDS011;62206;47.568;9.364;2024-03-06T06:23:59;6.28;;;5.63;;
73872;SDS011;62206;47.568;9.364;2024-03-06T06:26:26;6.40;;;5.80;;
73872;SDS011;62206;47.568;9.364;2024-03-06T06:28:53;5.60;;;4.97;;
73872;SDS011;62206;47.568;9.364;2024-03-06T06:31:20;6.93;;;6.32;;
73872;SDS011;62206;47.568;9.364;2024-03-06T06:33:47;7.55;;;6.85;;
73872;SDS011;62206;47.568;9.364;2024-03-06T06:36:15;6.72;;;6.13;;
73872;SDS011;62206;47.568;9.364;2024-03-06T06:38:43;6.53;;;5.93;;
73872;SDS011;62206;47.568;9.364;2024-03-06T06:41:11;6.37;;;5.77;;
73872;SDS011;62206;47.568;9.364;2024-03-06T06:43:39;6.20;;;5.60;;
73872;SDS011;62206;47.568;9.364;2024-03-06T06:46:06;6.95;;;6.25;;
73872;SDS011;62206;47.568;9.364;2024-03-06T06:48:33;6.35;;;5.75;;
73872;SDS011;62206;47.568;9.364;2024-03-06T06:51:01;6.80;;;6.20;;
73872;SDS011;62206;47.568;9.364;2024-03-06T06:53:27;6.93;;;6.33;;
73872;SDS011;62206;47.568;9.364;2024-03-06T06:55:55;6.43;;;5.82;;
73872;SDS011;62206;47.568;9.364;2024-03-06T06:58:24;7.47;;;6.88;;
73872;SDS011;62206;47.568;9.364;2024-03-06T07:00:52;6.13;;;5.53;;
73872;SDS011;62206;47.568;9.364;2024-03-06T07:03:19;6.70;;;6.10;;
73872;SDS011;62206;47.568;9.364;2024-03-06T07:05:47;6.70;;;6.10;;
73872;SDS011;62206;47.568;9.364;2024-03-06T07:08:14;7.25;;;6.55;;
73872;SDS011;62206;47.568;9.364;2024-03-06T07:10:40;6.68;;;6.03;;
73872;SDS011;62206;47.568;9.364;2024-03-06T07:13:08;6.78;;;6.15;;
73872;SDS011;62206;47.568;9.364;2024-03-06T07:15:36;7.00;;;6.40;;
73872;SDS011;62206;47.568;9.364;2024-03-06T07:18:03;7.23;;;6.53;;
73872;SDS011;62206;47.568;9.364;2024-03-06T07:20:30;6.82;;;5.80;;
73872;SDS011;62206;47.568;9.364;2024-03-06T07:22:57;6.90;;;6.30;;
73872;SDS011;62206;47.568;9.364;2024-03-06T07:25:24;7.22;;;6.53;;
73872;SDS011;62206;47.568;9.364;2024-03-06T07:27:51;7.13;;;6.43;;
73872;SDS011;62206;47.568;9.364;2024-03-06T07:30:18;6.53;;;5.93;;
73872;SDS011;62206;47.568;9.364;2024-03-06T07:32:47;7.25;;;6.50;;
73872;SDS011;62206;47.568;9.364;2024-03-06T07:35:14;7.90;;;7.10;;
73872;SDS011;62206;47.568;9.364;2024-03-06T07:37:43;7.22;;;6.53;;
73872;SDS011;62206;47.568;9.364;2024-03-06T07:40:10;7.28;;;6.57;;
73872;SDS011;62206;47.568;9.364;2024-03-06T07:42:38;7.27;;;6.60;;
73872;SDS011;62206;47.568;9.364;2024-03-06T07:45:06;6.95;;;6.25;;
73872;SDS011;62206;47.568;9.364;2024-03-06T07:47:34;7.30;;;6.60;;
73872;SDS011;62206;47.568;9.364;2024-03-06T07:50:05;6.45;;;5.85;;
73872;SDS011;62206;47.568;9.364;2024-03-06T07:52:33;6.72;;;6.13;;
73872;SDS011;62206;47.568;9.364;2024-03-06T07:55:01;6.30;;;5.70;;
73872;SDS011;62206;47.568;9.364;2024-03-06T07:57:28;6.70;;;6.10;;
73872;SDS011;62206;47.568;9.364;2024-03-06T07:59:55;7.30;;;6.60;;
73872;SDS011;62206;47.568;9.364;2024-03-06T08:02:22;6.07;;;5.47;;
73872;SDS011;62206;47.568;9.364;2024-03-06T08:04:49;6.50;;;5.90;;
73872;SDS011;62206;47.568;9.364;2024-03-06T08:07:18;6.60;;;6.00;;
73872;SDS011;62206;47.568;9.364;2024-03-06T08:09:45;6.88;;;5.53;;
73872;SDS011;62206;47.568;9.364;2024-03-06T08:12:12;7.07;;;6.35;;
73872;SDS011;62206;47.568;9.364;2024-03-06T08:14:39;6.68;;;5.85;;
73872;SDS011;62206;47.568;9.364;2024-03-06T08:17:06;7.05;;;6.28;;
73872;SDS011;62206;47.568;9.364;2024-03-06T08:19:33;7.93;;;5.27;;
73872;SDS011;62206;47.568;9.364;2024-03-06T08:22:00;17.27;;;9.88;;
73872;SDS011;62206;47.568;9.364;2024-03-06T08:24:28;14.88;;;10.02;;
73872;SDS011;62206;47.568;9.364;2024-03-06T08:26:56;6.95;;;6.25;;
73872;SDS011;62206;47.568;9.364;2024-03-06T08:29:23;7.18;;;6.57;;
73872;SDS011;62206;47.568;9.364;2024-03-06T08:31:50;8.40;;;7.50;;
73872;SDS011;62206;47.568;9.364;2024-03-06T08:34:17;8.00;;;6.97;;
73872;SDS011;62206;47.568;9.364;2024-03-06T08:36:44;7.40;;;6.45;;
73872;SDS011;62206;47.568;9.364;2024-03-06T08:39:11;7.28;;;6.57;;
73872;SDS011;62206;47.568;9.364;2024-03-06T08:41:43;6.60;;;6.00;;
73872;SDS011;62206;47.568;9.364;2024-03-06T08:44:10;6.30;;;5.67;;
73872;SDS011;62206;47.568;9.364;2024-03-06T08:46:37;6.72;;;6.13;;
73872;SDS011;62206;47.568;9.364;2024-03-06T08:49:04;7.20;;;6.53;;
73872;SDS011;62206;47.568;9.364;2024-03-06T08:51:31;5.93;;;5.25;;
73872;SDS011;62206;47.568;9.364;2024-03-06T08:53:58;6.65;;;6.05;;
73872;SDS011;62206;47.568;9.364;2024-03-06T08:56:25;6.43;;;5.83;;
73872;SDS011;62206;47.568;9.364;2024-03-06T08:58:54;6.15;;;5.55;;
73872;SDS011;62206;47.568;9.364;2024-03-06T09:01:20;6.72;;;6.13;;
73872;SDS011;62206;47.568;9.364;2024-03-06T09:03:48;6.72;;;6.13;;
73872;SDS011;62206;47.568;9.364;2024-03-06T09:06:14;6.78;;;6.18;;
73872;SDS011;62206;47.568;9.364;2024-03-06T09:08:41;6.33;;;5.50;;
73872;SDS011;62206;47.568;9.364;2024-03-06T09:11:09;6.55;;;5.95;;
73872;SDS011;62206;47.568;9.364;2024-03-06T09:13:35;6.82;;;6.13;;
73872;SDS011;62206;47.568;9.364;2024-03-06T09:16:05;6.70;;;6.00;;
73872;SDS011;62206;47.568;9.364;2024-03-06T09:18:33;6.45;;;5.85;;
73872;SDS011;62206;47.568;9.364;2024-03-06T09:20:59;6.33;;;5.73;;
73872;SDS011;62206;47.568;9.364;2024-03-06T09:23:27;6.28;;;5.68;;
73872;SDS011;62206;47.568;9.364;2024-03-06T09:25:55;6.93;;;6.22;;
73872;SDS011;62206;47.568;9.364;2024-03-06T09:28:22;6.65;;;6.05;;
73872;SDS011;62206;47.568;9.364;2024-03-06T09:30:49;6.00;;;5.40;;
73872;SDS011;62206;47.568;9.364;2024-03-06T09:33:18;6.43;;;5.67;;
73872;SDS011;62206;47.568;9.364;2024-03-06T09:35:45;7.10;;;6.40;;
73872;SDS011;62206;47.568;9.364;2024-03-06T09:38:12;7.82;;;7.13;;
73872;SDS011;62206;47.568;9.364;2024-03-06T09:40:40;6.18;;;5.57;;
73872;SDS011;62206;47.568;9.364;2024-03-06T09:43:07;7.88;;;7.18;;
73872;SDS011;62206;47.568;9.364;2024-03-06T09:45:34;6.30;;;5.70;;
73872;SDS011;62206;47.568;9.364;2024-03-06T09:48:03;7.03;;;5.82;;
73872;SDS011;62206;47.568;9.364;2024-03-06T09:50:33;7.20;;;6.60;;
73872;SDS011;62206;47.568;9.364;2024-03-06T09:53:03;6.95;;;6.35;;
73872;SDS011;62206;47.568;9.364;2024-03-06T09:55:31;6.15;;;5.65;;
73872;SDS011;62206;47.568;9.364;2024-03-06T09:58:00;6.10;;;5.50;;
73872;SDS011;62206;47.568;9.364;2024-03-06T10:00:29;6.10;;;5.50;;
73872;SDS011;62206;47.568;9.364;2024-03-06T10:02:58;6.28;;;5.68;;
73872;SDS011;62206;47.568;9.364;2024-03-06T10:05:26;6.60;;;6.00;;
73872;SDS011;62206;47.568;9.364;2024-03-06T10:07:55;6.60;;;6.00;;
73872;SDS011;62206;47.568;9.364;2024-03-06T10:10:24;6.83;;;6.07;;
73872;SDS011;62206;47.568;9.364;2024-03-06T10:12:52;5.55;;;5.05;;
73872;SDS011;62206;47.568;9.364;2024-03-06T10:15:19;5.85;;;5.35;;
73872;SDS011;62206;47.568;9.364;2024-03-06T10:17:46;6.30;;;5.70;;
73872;SDS011;62206;47.568;9.364;2024-03-06T10:20:18;6.13;;;5.53;;
73872;SDS011;62206;47.568;9.364;2024-03-06T10:22:47;6.10;;;5.50;;
73872;SDS011;62206;47.568;9.364;2024-03-06T10:25:18;7.50;;;6.03;;
73872;SDS011;62206;47.568;9.364;2024-03-06T10:27:47;8.20;;;6.47;;
73872;SDS011;62206;47.568;9.364;2024-03-06T10:30:30;17.08;;;10.50;;
73872;SDS011;62206;47.568;9.364;2024-03-06T10:32:58;7.63;;;6.93;;
73872;SDS011;62206;47.568;9.364;2024-03-06T10:35:26;6.57;;;5.97;;
73872;SDS011;62206;47.568;9.364;2024-03-06T10:37:52;6.53;;;5.93;;
73872;SDS011;62206;47.568;9.364;2024-03-06T10:40:23;6.30;;;5.60;;
73872;SDS011;62206;47.568;9.364;2024-03-06T10:42:49;7.15;;;6.45;;
73872;SDS011;62206;47.568;9.364;2024-03-06T10:45:17;7.55;;;6.75;;
73872;SDS011;62206;47.568;9.364;2024-03-06T10:47:46;6.83;;;6.13;;
73872;SDS011;62206;47.568;9.364;2024-03-06T10:50:14;7.22;;;6.53;;
73872;SDS011;62206;47.568;9.364;2024-03-06T10:52:41;6.72;;;6.05;;
73872;SDS011;62206;47.568;9.364;2024-03-06T10:55:09;6.95;;;6.30;;
73872;SDS011;62206;47.568;9.364;2024-03-06T10:57:39;7.20;;;6.57;;
73872;SDS011;62206;47.568;9.364;2024-03-06T11:00:06;7.17;;;6.17;;
73872;SDS011;62206;47.568;9.364;2024-03-06T11:02:35;7.05;;;6.45;;
73872;SDS011;62206;47.568;9.364;2024-03-06T11:05:04;7.30;;;6.60;;
73872;SDS011;62206;47.568;9.364;2024-03-06T11:07:34;7.10;;;6.50;;
73872;SDS011;62206;47.568;9.364;2024-03-06T11:10:02;6.97;;;6.20;;
73872;SDS011;62206;47.568;9.364;2024-03-06T11:12:32;6.97;;;6.33;;
73872;SDS011;62206;47.568;9.364;2024-03-06T11:15:01;6.25;;;5.65;;
73872;SDS011;62206;47.568;9.364;2024-03-06T11:17:36;6.95;;;6.25;;
73872;SDS011;62206;47.568;9.364;2024-03-06T11:20:13;6.53;;;5.90;;
73872;SDS011;62206;47.568;9.364;2024-03-06T11:23:02;6.82;;;6.13;;
73872;SDS011;62206;47.568;9.364;2024-03-06T11:28:30;7.13;;;6.43;;
73872;SDS011;62206;47.568;9.364;2024-03-06T11:31:00;7.05;;;6.45;;
73872;SDS011;62206;47.568;9.364;2024-03-06T11:33:37;7.05;;;6.35;;
73872;SDS011;62206;47.568;9.364;2024-03-06T11:36:17;6.82;;;6.22;;
73872;SDS011;62206;47.568;9.364;2024-03-06T11:38:52;6.27;;;5.67;;
73872;SDS011;62206;47.568;9.364;2024-03-06T11:41:20;6.97;;;6.28;;
73872;SDS011;62206;47.568;9.364;2024-03-06T11:43:50;7.15;;;6.45;;
73872;SDS011;62206;47.568;9.364;2024-03-06T11:46:20;6.38;;;5.78;;
73872;SDS011;62206;47.568;9.364;2024-03-06T11:48:52;7.35;;;6.55;;
73872;SDS011;62206;47.568;9.364;2024-03-06T11:51:21;7.80;;;7.00;;
73872;SDS011;62206;47.568;9.364;2024-03-06T11:53:51;6.63;;;5.43;;
73872;SDS011;62206;47.568;9.364;2024-03-06T11:56:19;8.10;;;7.40;;
73872;SDS011;62206;47.568;9.364;2024-03-06T11:58:47;6.78;;;6.07;;
73872;SDS011;62206;47.568;9.364;2024-03-06T12:01:14;6.93;;;6.22;;
73872;SDS011;62206;47.568;9.364;2024-03-06T12:03:42;7.00;;;6.33;;
73872;SDS011;62206;47.568;9.364;2024-03-06T12:06:10;7.40;;;6.75;;
73872;SDS011;62206;47.568;9.364;2024-03-06T12:08:38;6.88;;;6.28;;
73872;SDS011;62206;47.568;9.364;2024-03-06T12:11:05;7.75;;;6.95;;
73872;SDS011;62206;47.568;9.364;2024-03-06T12:13:33;7.30;;;6.60;;
73872;SDS011;62206;47.568;9.364;2024-03-06T12:16:05;6.63;;;6.03;;
73872;SDS011;62206;47.568;9.364;2024-03-06T12:18:33;7.70;;;7.00;;
73872;SDS011;62206;47.568;9.364;2024-03-06T12:21:02;7.05;;;6.35;;
73872;SDS011;62206;47.568;9.364;2024-03-06T12:23:29;6.82;;;6.13;;
73872;SDS011;62206;47.568;9.364;2024-03-06T12:26:03;7.13;;;6.43;;
73872;SDS011;62206;47.568;9.364;2024-03-06T12:28:31;6.37;;;5.77;;
73872;SDS011;62206;47.568;9.364;2024-03-06T12:30:59;6.45;;;5.85;;
73872;SDS011;62206;47.568;9.364;2024-03-06T12:33:28;6.63;;;6.03;;
73872;SDS011;62206;47.568;9.364;2024-03-06T12:36:03;6.22;;;5.65;;
73872;SDS011;62206;47.568;9.364;2024-03-06T12:38:32;6.63;;;6.03;;
73872;SDS011;62206;47.568;9.364;2024-03-06T12:40:59;7.30;;;5.47;;
73872;SDS011;62206;47.568;9.364;2024-03-06T12:43:26;5.65;;;5.05;;
73872;SDS011;62206;47.568;9.364;2024-03-06T12:45:54;6.38;;;5.78;;
73872;SDS011;62206;47.568;9.364;2024-03-06T12:48:22;5.20;;;4.70;;
73872;SDS011;62206;47.568;9.364;2024-03-06T12:50:49;5.90;;;5.40;;
73872;SDS011;62206;47.568;9.364;2024-03-06T12:53:21;5.67;;;5.17;;
73872;SDS011;62206;47.568;9.364;2024-03-06T12:55:48;5.60;;;5.10;;
73872;SDS011;62206;47.568;9.364;2024-03-06T12:58:15;5.68;;;5.18;;
73872;SDS011;62206;47.568;9.364;2024-03-06T13:00:42;6.05;;;5.55;;
73872;SDS011;62206;47.568;9.364;2024-03-06T13:03:09;6.75;;;6.10;;
73872;SDS011;62206;47.568;9.364;2024-03-06T13:05:36;5.30;;;4.80;;
73872;SDS011;62206;47.568;9.364;2024-03-06T13:08:04;5.35;;;4.85;;
73872;SDS011;62206;47.568;9.364;2024-03-06T13:10:33;5.72;;;5.22;;
73872;SDS011;62206;47.568;9.364;2024-03-06T13:13:01;6.57;;;5.10;;
73872;SDS011;62206;47.568;9.364;2024-03-06T13:15:28;5.90;;;5.40;;
73872;SDS011;62206;47.568;9.364;2024-03-06T13:17:55;6.17;;;5.60;;
73872;SDS011;62206;47.568;9.364;2024-03-06T13:20:22;5.65;;;4.75;;
73872;SDS011;62206;47.568;9.364;2024-03-06T13:22:49;6.47;;;5.88;;
73872;SDS011;62206;47.568;9.364;2024-03-06T13:25:16;6.70;;;6.10;;
73872;SDS011;62206;47.568;9.364;2024-03-06T13:27:46;6.78;;;6.18;;
73872;SDS011;62206;47.568;9.364;2024-03-06T13:30:13;6.37;;;5.77;;
73872;SDS011;62206;47.568;9.364;2024-03-06T13:32:40;5.95;;;5.43;;
73872;SDS011;62206;47.568;9.364;2024-03-06T13:35:08;5.90;;;5.20;;
73872;SDS011;62206;47.568;9.364;2024-03-06T13:37:38;6.25;;;5.65;;
73872;SDS011;62206;47.568;9.364;2024-03-06T13:40:05;6.43;;;5.82;;
73872;SDS011;62206;47.568;9.364;2024-03-06T13:42:33;5.47;;;4.97;;
73872;SDS011;62206;47.568;9.364;2024-03-06T13:45:02;6.30;;;5.80;;
73872;SDS011;62206;47.568;9.364;2024-03-06T13:47:30;6.07;;;5.57;;
73872;SDS011;62206;47.568;9.364;2024-03-06T13:49:57;5.70;;;5.18;;
73872;SDS011;62206;47.568;9.364;2024-03-06T13:52:24;6.10;;;5.60;;
73872;SDS011;62206;47.568;9.364;2024-03-06T13:54:51;6.07;;;5.47;;
73872;SDS011;62206;47.568;9.364;2024-03-06T13:57:18;5.70;;;5.20;;
73872;SDS011;62206;47.568;9.364;2024-03-06T13:59:46;6.78;;;6.07;;
73872;SDS011;62206;47.568;9.364;2024-03-06T14:02:14;6.63;;;6.03;;
73872;SDS011;62206;47.568;9.364;2024-03-06T14:04:41;6.03;;;5.53;;
73872;SDS011;62206;47.568;9.364;2024-03-06T14:07:08;5.97;;;5.23;;
73872;SDS011;62206;47.568;9.364;2024-03-06T14:09:35;6.75;;;6.13;;
73872;SDS011;62206;47.568;9.364;2024-03-06T14:12:02;10.27;;;9.30;;
73872;SDS011;62206;47.568;9.364;2024-03-06T14:14:30;8.45;;;7.75;;
73872;SDS011;62206;47.568;9.364;2024-03-06T14:16:57;6.05;;;5.55;;
73872;SDS011;62206;47.568;9.364;2024-03-06T14:19:25;6.13;;;5.53;;
73872;SDS011;62206;47.568;9.364;2024-03-06T14:21:53;5.88;;;5.28;;
73872;SDS011;62206;47.568;9.364;2024-03-06T14:24:20;5.82;;;5.30;;
73872;SDS011;62206;47.568;9.364;2024-03-06T14:26:46;6.22;;;5.63;;
73872;SDS011;62206;47.568;9.364;2024-03-06T14:29:15;6.60;;;6.00;;
73872;SDS011;62206;47.568;9.364;2024-03-06T14:31:42;6.20;;;5.37;;
73872;SDS011;62206;47.568;9.364;2024-03-06T14:34:09;6.00;;;5.50;;
73872;SDS011;62206;47.568;9.364;2024-03-06T14:36:38;8.80;;;6.50;;
73872;SDS011;62206;47.568;9.364;2024-03-06T14:39:06;9.50;;;7.50;;
73872;SDS011;62206;47.568;9.364;2024-03-06T14:41:35;6.88;;;6.18;;
73872;SDS011;62206;47.568;9.364;2024-03-06T14:44:03;5.90;;;5.40;;
73872;SDS011;62206;47.568;9.364;2024-03-06T14:46:30;4.53;;;4.13;;
73872;SDS011;62206;47.568;9.364;2024-03-06T14:48:56;5.38;;;4.88;;
73872;SDS011;62206;47.568;9.364;2024-03-06T14:51:24;5.43;;;4.93;;
73872;SDS011;62206;47.568;9.364;2024-03-06T14:53:52;5.47;;;4.97;;